createdAt,value
2023-04-19T00:00:49.619Z,85.73
2023-04-19T00:03:17.454Z,85.57
2023-04-19T00:05:46.782Z,85.80
2023-04-19T00:08:14.603Z,85.43
2023-04-19T00:10:42.240Z,85.70
2023-04-19T00:13:09.979Z,85.58
2023-04-19T00:15:38.905Z,85.94
2023-04-19T00:18:07.366Z,86.13
2023-04-19T00:20:35.034Z,86.05
2023-04-19T00:23:04.102Z,85.68
2023-04-19T00:25:31.965Z,85.65
2023-04-19T00:27:59.721Z,85.48
2023-04-19T00:30:27.935Z,85.35
2023-04-19T00:32:56.033Z,85.03
2023-04-19T00:35:25.739Z,85.34
2023-04-19T00:37:53.568Z,85.31
2023-04-19T00:40:22.528Z,85.34
2023-04-19T00:42:50.247Z,85.22
2023-04-19T00:45:17.870Z,85.48
2023-04-19T00:47:45.676Z,85.24
2023-04-19T00:50:14.453Z,85.58
2023-04-19T00:52:43.102Z,85.98
2023-04-19T00:55:11.362Z,86.11
2023-04-19T00:57:40.604Z,85.97
2023-04-19T01:00:10.066Z,85.93
2023-04-19T01:02:37.913Z,85.76
2023-04-19T01:05:06.231Z,85.74
2023-04-19T01:07:34.927Z,85.34
2023-04-19T01:10:02.646Z,85.31
2023-04-19T01:12:30.408Z,85.39
2023-04-19T01:14:59.338Z,85.16
2023-04-19T01:17:28.107Z,85.69
2023-04-19T01:20:00.579Z,86.00
2023-04-19T01:22:30.644Z,85.83
2023-04-19T01:24:58.546Z,85.83
2023-04-19T01:27:26.301Z,85.91
2023-04-19T01:29:53.875Z,85.97
2023-04-19T01:32:21.665Z,86.08
2023-04-19T01:34:50.546Z,85.79
2023-04-19T01:37:18.133Z,86.03
2023-04-19T01:39:47.483Z,86.60
2023-04-19T01:42:15.074Z,86.38
2023-04-19T01:44:42.865Z,87.34
2023-04-19T01:47:10.884Z,86.85
2023-04-19T01:49:41.024Z,87.04
2023-04-19T01:52:09.607Z,87.13
2023-04-19T01:54:37.438Z,86.96
2023-04-19T01:57:06.381Z,87.08
2023-04-19T01:59:34.024Z,87.30
2023-04-19T02:02:01.698Z,87.78
2023-04-19T02:04:29.593Z,87.77
2023-04-19T02:06:57.214Z,87.32
2023-04-19T02:09:24.960Z,87.39
2023-04-19T02:11:52.609Z,87.69
2023-04-19T02:14:23.764Z,87.34
2023-04-19T02:16:51.367Z,87.43
2023-04-19T02:19:19.256Z,87.25
2023-04-19T02:21:46.924Z,87.49
2023-04-19T02:24:15.600Z,87.40
2023-04-19T02:26:43.450Z,87.14
2023-04-19T02:29:11.312Z,87.11
2023-04-19T02:31:40.861Z,86.95
2023-04-19T02:34:10.424Z,86.83
2023-04-19T02:36:38.030Z,87.01
2023-04-19T02:39:06.892Z,87.55
2023-04-19T02:41:34.675Z,87.00
2023-04-19T02:44:02.860Z,86.78
2023-04-19T02:46:30.554Z,86.81
2023-04-19T02:49:01.648Z,86.96
2023-04-19T02:51:29.461Z,87.26
2023-04-19T02:53:57.373Z,87.17
2023-04-19T02:56:25.621Z,86.94
2023-04-19T02:58:54.717Z,87.11
2023-04-19T03:01:22.334Z,87.09
2023-04-19T03:03:51.165Z,86.86
2023-04-19T03:06:20.435Z,86.71
2023-04-19T03:08:48.249Z,86.67
2023-04-19T03:11:18.566Z,86.72
2023-04-19T03:13:47.792Z,86.57
2023-04-19T03:16:16.254Z,86.69
2023-04-19T03:18:45.815Z,86.47
2023-04-19T03:21:15.120Z,86.65
2023-04-19T03:23:52.475Z,86.91
2023-04-19T03:26:20.402Z,86.70
2023-04-19T03:28:51.949Z,86.74
2023-04-19T03:31:27.021Z,86.65
2023-04-19T03:33:55.215Z,86.80
2023-04-19T03:36:28.749Z,86.33
2023-04-19T03:38:57.870Z,86.33
2023-04-19T03:41:27.171Z,86.10
2023-04-19T03:44:03.847Z,86.60
2023-04-19T03:46:31.654Z,86.72
2023-04-19T03:49:00.487Z,87.06
2023-04-19T03:51:29.336Z,87.18
2023-04-19T03:53:58.838Z,87.06
2023-04-19T03:56:26.525Z,86.95
2023-04-19T03:58:55.738Z,87.05
2023-04-19T04:01:25.578Z,87.01
2023-04-19T04:03:54.585Z,86.85
2023-04-19T04:06:23.580Z,86.49
2023-04-19T04:08:51.279Z,86.98
2023-04-19T04:11:20.577Z,86.97
2023-04-19T04:13:50.419Z,86.95
2023-04-19T04:16:22.427Z,86.81
2023-04-19T04:18:52.066Z,87.25
2023-04-19T04:21:19.969Z,87.01
2023-04-19T04:23:49.719Z,87.25
2023-04-19T04:26:30.772Z,87.05
2023-04-19T04:29:10.987Z,87.51
2023-04-19T04:31:40.859Z,86.88
2023-04-19T04:34:09.148Z,86.87
2023-04-19T04:36:42.500Z,86.56
2023-04-19T04:39:12.483Z,86.77
2023-04-19T04:41:42.067Z,86.66
2023-04-19T04:44:12.922Z,86.80
2023-04-19T04:46:41.900Z,86.94
2023-04-19T04:49:12.308Z,86.72
2023-04-19T04:51:42.781Z,86.97
2023-04-19T04:54:11.070Z,86.65
2023-04-19T04:56:39.201Z,86.98
2023-04-19T04:59:08.642Z,86.61
2023-04-19T05:01:40.434Z,86.79
2023-04-19T05:04:08.201Z,86.63
2023-04-19T05:06:36.304Z,86.77
2023-04-19T05:09:04.679Z,86.47
2023-04-19T05:11:35.132Z,86.53
2023-04-19T05:14:03.652Z,87.05
2023-04-19T05:16:34.959Z,86.61
2023-04-19T05:19:03.943Z,86.91
2023-04-19T05:21:35.960Z,87.16
2023-04-19T05:24:06.635Z,87.11
2023-04-19T05:26:35.985Z,87.19
2023-04-19T05:29:05.716Z,86.84
2023-04-19T05:32:01.115Z,86.65
2023-04-19T05:34:31.812Z,86.79
2023-04-19T05:37:00.827Z,86.66
2023-04-19T05:39:28.858Z,86.18
2023-04-19T05:41:56.460Z,86.39
2023-04-19T05:44:24.383Z,85.82
2023-04-19T05:46:52.573Z,86.10
2023-04-19T05:49:36.272Z,86.18
2023-04-19T05:52:17.690Z,86.03
2023-04-19T05:54:49.569Z,85.51
2023-04-19T05:57:17.225Z,85.77
2023-04-19T05:59:44.984Z,85.82
2023-04-19T06:02:14.982Z,85.77
2023-04-19T06:04:45.067Z,85.19
2023-04-19T06:07:22.244Z,85.12
2023-04-19T06:09:58.361Z,84.73
2023-04-19T06:12:26.072Z,85.34
2023-04-19T06:14:54.249Z,85.31
2023-04-19T06:17:25.326Z,85.37
2023-04-19T06:19:55.335Z,85.27
2023-04-19T06:22:23.005Z,85.17
2023-04-19T06:24:50.751Z,84.81
2023-04-19T06:27:18.709Z,84.99
2023-04-19T06:29:46.302Z,84.87
2023-04-19T06:32:13.895Z,84.14
2023-04-19T06:34:41.495Z,84.49
2023-04-19T06:37:10.834Z,84.03
2023-04-19T06:39:38.401Z,83.88
2023-04-19T06:42:06.316Z,83.49
2023-04-19T06:44:34.521Z,83.20
2023-04-19T06:47:02.128Z,82.64
2023-04-19T06:49:29.755Z,82.79
2023-04-19T06:51:57.371Z,82.77
2023-04-19T06:54:26.299Z,82.34
2023-04-19T06:56:54.418Z,82.40
2023-04-19T06:59:22.302Z,81.92
2023-04-19T07:01:50.196Z,82.17
2023-04-19T07:04:18.590Z,81.75
2023-04-19T07:06:50.045Z,81.76
2023-04-19T07:09:17.769Z,81.40
2023-04-19T07:11:47.942Z,81.53
2023-04-19T07:14:16.528Z,81.52
2023-04-19T07:16:44.371Z,81.29
2023-04-19T07:19:12.017Z,80.63
2023-04-19T07:21:39.821Z,79.98
2023-04-19T07:24:07.648Z,80.00
2023-04-19T07:26:35.867Z,80.16
2023-04-19T07:29:04.796Z,80.07
2023-04-19T07:31:32.554Z,80.03
2023-04-19T07:34:00.168Z,79.81
2023-04-19T07:36:27.988Z,79.85
2023-04-19T07:38:55.656Z,80.00
2023-04-19T07:41:23.722Z,79.84
2023-04-19T07:43:51.430Z,79.92
2023-04-19T07:46:20.607Z,80.08
2023-04-19T07:48:48.254Z,79.71
2023-04-19T07:51:17.461Z,79.30
2023-04-19T07:53:45.221Z,79.16
2023-04-19T07:56:13.356Z,79.43
2023-04-19T07:58:41.385Z,79.44
2023-04-19T08:01:09.241Z,79.71
2023-04-19T08:03:38.759Z,79.87
2023-04-19T08:06:08.420Z,80.00
2023-04-19T08:08:36.100Z,79.96
2023-04-19T08:11:04.263Z,80.12
2023-04-19T08:13:31.927Z,79.70
2023-04-19T08:18:30.215Z,79.21
2023-04-19T08:20:59.194Z,78.80
2023-04-19T08:23:32.013Z,78.75
2023-04-19T08:26:06.003Z,76.69
2023-04-19T08:28:33.715Z,76.93
2023-04-19T08:31:01.368Z,76.98
2023-04-19T08:33:29.673Z,77.10
2023-04-19T08:35:58.620Z,76.96
2023-04-19T08:38:26.414Z,76.74
2023-04-19T08:40:56.023Z,75.99
2023-04-19T08:43:28.693Z,75.69
2023-04-19T08:45:57.745Z,75.74
2023-04-19T08:48:25.637Z,75.36
2023-04-19T08:51:04.998Z,75.31
2023-04-19T08:53:36.544Z,74.53
2023-04-19T08:56:15.258Z,73.68
2023-04-19T09:01:31.039Z,72.22
2023-04-19T09:04:17.006Z,71.86
2023-04-19T09:06:49.192Z,71.31
2023-04-19T09:09:34.859Z,72.15
2023-04-19T09:12:17.670Z,70.48
2023-04-19T09:15:00.581Z,71.05
2023-04-19T09:17:29.392Z,70.25
2023-04-19T09:19:57.045Z,70.49
2023-04-19T09:22:25.497Z,70.49
2023-04-19T09:25:30.047Z,70.25
2023-04-19T09:27:42.213Z,67.42
2023-04-19T09:30:17.566Z,68.78
2023-04-19T09:32:52.136Z,68.67
2023-04-19T09:35:19.892Z,69.02
2023-04-19T09:38:05.584Z,67.90
2023-04-19T09:40:35.640Z,68.20
2023-04-19T09:45:42.988Z,67.33
2023-04-19T09:48:11.737Z,67.98
2023-04-19T09:51:00.180Z,67.66
2023-04-19T09:53:33.979Z,66.18
2023-04-19T09:56:05.236Z,66.23
2023-04-19T09:58:46.819Z,65.99
2023-04-19T10:01:19.804Z,65.61
2023-04-19T10:03:51.291Z,65.90
2023-04-19T10:08:54.562Z,65.85
2023-04-19T10:11:25.127Z,66.51
2023-04-19T10:13:58.298Z,66.15
2023-04-19T10:16:26.424Z,67.06
2023-04-19T10:18:55.561Z,66.77
2023-04-19T10:21:23.740Z,67.50
2023-04-19T10:23:52.059Z,65.98
2023-04-19T10:26:19.701Z,65.74
2023-04-19T10:28:49.217Z,65.52
2023-04-19T10:31:21.213Z,64.75
2023-04-19T10:33:49.485Z,64.53
2023-04-19T10:36:17.775Z,64.24
2023-04-19T10:38:48.089Z,63.36
2023-04-19T10:41:17.823Z,61.75
2023-04-19T10:43:49.107Z,63.17
2023-04-19T10:46:37.341Z,61.85
2023-04-19T10:49:07.944Z,61.45
2023-04-19T10:51:37.241Z,61.60
2023-04-19T10:54:05.561Z,62.59
2023-04-19T10:56:58.933Z,61.72
2023-04-19T10:59:28.200Z,62.25
2023-04-19T11:01:58.036Z,63.67
2023-04-19T11:05:00.672Z,64.20
2023-04-19T11:07:28.544Z,64.25
2023-04-19T11:09:56.169Z,63.46
2023-04-19T11:12:23.771Z,64.62
2023-04-19T11:14:57.249Z,64.83
2023-04-19T11:17:28.095Z,63.41
2023-04-19T11:19:57.258Z,62.40
2023-04-19T11:22:35.241Z,63.08
2023-04-19T11:25:10.302Z,61.81
2023-04-19T11:27:39.006Z,62.44
2023-04-19T11:30:09.723Z,62.79
2023-04-19T11:32:38.330Z,63.65
2023-04-19T11:35:10.078Z,63.74
2023-04-19T11:37:38.802Z,64.83
2023-04-19T11:40:08.311Z,65.60
2023-04-19T11:42:36.829Z,68.17
2023-04-19T11:45:06.184Z,68.35
2023-04-19T11:47:49.000Z,68.28
2023-04-19T11:50:36.466Z,67.82
2023-04-19T11:53:15.693Z,67.67
2023-04-19T11:55:47.392Z,67.14
2023-04-19T11:58:25.229Z,67.67
2023-04-19T12:00:52.964Z,69.94
2023-04-19T12:03:26.387Z,69.27
2023-04-19T12:05:59.625Z,68.91
2023-04-19T12:08:35.156Z,69.63
2023-04-19T12:11:04.115Z,68.98
2023-04-19T12:13:32.731Z,70.37
2023-04-19T12:16:01.642Z,70.88
2023-04-19T12:18:44.472Z,70.93
2023-04-19T12:21:12.728Z,71.37
2023-04-19T12:23:40.470Z,71.94
2023-04-19T12:26:08.238Z,72.50
2023-04-19T12:28:35.887Z,73.10
2023-04-19T12:31:04.087Z,73.17
2023-04-19T12:33:33.338Z,73.71
2023-04-19T12:36:01.441Z,73.82
2023-04-19T12:38:29.226Z,73.91
2023-04-19T12:40:56.858Z,74.24
2023-04-19T12:43:24.463Z,74.58
2023-04-19T12:45:52.121Z,74.74
2023-04-19T12:48:19.726Z,75.08
2023-04-19T12:50:48.981Z,75.30
2023-04-19T12:53:16.699Z,75.28
2023-04-19T12:55:47.313Z,75.56
2023-04-19T12:58:14.949Z,75.76
2023-04-19T13:00:42.816Z,76.05
2023-04-19T13:03:10.756Z,76.89
2023-04-19T13:05:38.527Z,77.05
2023-04-19T13:08:07.813Z,77.26
2023-04-19T13:10:35.754Z,77.27
2023-04-19T13:13:03.555Z,77.72
2023-04-19T13:15:31.591Z,79.13
2023-04-19T13:17:59.247Z,78.76
2023-04-19T13:20:27.123Z,78.94
2023-04-19T13:22:54.735Z,79.16
2023-04-19T13:25:24.192Z,79.11
2023-04-19T13:27:51.803Z,78.88
2023-04-19T13:30:19.446Z,78.89
2023-04-19T13:32:47.110Z,79.31
2023-04-19T13:35:15.139Z,79.16
2023-04-19T13:37:44.316Z,78.62
2023-04-19T13:40:19.179Z,78.25
2023-04-19T13:42:48.819Z,78.67
2023-04-19T13:45:16.684Z,79.10
2023-04-19T13:47:44.329Z,78.42
2023-04-19T13:50:12.908Z,77.85
2023-04-19T13:52:40.626Z,77.67
2023-04-19T13:55:08.996Z,77.77
2023-04-19T13:57:36.651Z,77.52
2023-04-19T14:00:07.466Z,78.21
2023-04-19T14:02:35.869Z,79.05
2023-04-19T14:05:04.692Z,79.06
2023-04-19T14:07:32.553Z,78.98
2023-04-19T14:10:00.316Z,79.09
2023-04-19T14:12:28.076Z,79.06
2023-04-19T14:14:55.806Z,78.74
2023-04-19T14:17:25.067Z,78.42
2023-04-19T14:19:52.760Z,79.10
2023-04-19T14:22:20.551Z,79.04
2023-04-19T14:24:48.408Z,79.01
2023-04-19T14:27:16.034Z,78.68
2023-04-19T14:29:43.738Z,77.90
2023-04-19T14:32:24.836Z,77.68
2023-04-19T14:34:55.899Z,78.11
2023-04-19T14:37:24.792Z,78.21
2023-04-19T14:39:53.295Z,78.29
2023-04-19T14:42:22.885Z,78.50
2023-04-19T14:44:52.626Z,77.85
2023-04-19T14:47:20.707Z,78.15
2023-04-19T14:49:48.579Z,78.01
2023-04-19T14:52:18.036Z,77.43
2023-04-19T14:54:46.163Z,76.81
2023-04-19T14:57:14.039Z,76.84
2023-04-19T14:59:42.404Z,77.07
2023-04-19T15:02:10.758Z,77.39
2023-04-19T15:04:40.987Z,77.50
2023-04-19T15:07:09.061Z,77.75
2023-04-19T15:09:38.309Z,77.48
2023-04-19T15:12:06.094Z,78.20
2023-04-19T15:14:33.716Z,77.93
2023-04-19T15:17:01.677Z,77.57
2023-04-19T15:19:30.725Z,78.16
2023-04-19T15:21:58.354Z,78.26
2023-04-19T15:24:26.080Z,78.50
2023-04-19T15:26:55.005Z,79.19
2023-04-19T15:29:22.733Z,80.05
2023-04-19T15:31:50.639Z,79.90
2023-04-19T15:34:18.397Z,80.27
2023-04-19T15:36:46.150Z,80.29
2023-04-19T15:39:13.876Z,81.16
2023-04-19T15:41:41.650Z,81.38
2023-04-19T15:44:10.607Z,81.67
2023-04-19T15:46:38.474Z,81.13
2023-04-19T15:49:06.390Z,81.72
2023-04-19T15:51:34.236Z,81.70
2023-04-19T15:54:01.828Z,82.31
2023-04-19T15:56:29.417Z,81.65
2023-04-19T15:58:57.010Z,80.95
2023-04-19T16:01:26.990Z,81.14
2023-04-19T16:03:54.875Z,81.92
2023-04-19T16:06:23.036Z,81.85
2023-04-19T16:08:51.053Z,81.99
2023-04-19T16:11:18.699Z,81.98
2023-04-19T16:13:46.371Z,82.05
2023-04-19T16:16:14.141Z,81.14
2023-04-19T16:18:43.227Z,81.23
2023-04-19T16:21:11.646Z,81.38
2023-04-19T16:23:39.266Z,81.74
2023-04-19T16:26:07.759Z,81.74
2023-04-19T16:28:35.570Z,81.83
2023-04-19T16:31:03.709Z,82.54
2023-04-19T16:33:31.317Z,83.01
2023-04-19T16:36:00.487Z,83.05
2023-04-19T16:38:28.187Z,82.52
2023-04-19T16:40:56.006Z,82.17
2023-04-19T16:43:23.740Z,81.61
2023-04-19T16:45:51.610Z,81.61
2023-04-19T16:48:19.409Z,81.16
2023-04-19T16:50:47.307Z,80.15
2023-04-19T16:53:16.316Z,79.89
2023-04-19T16:55:43.970Z,80.24
2023-04-19T16:58:11.564Z,80.06
2023-04-19T17:00:39.200Z,79.62
2023-04-19T17:03:09.170Z,79.59
2023-04-19T17:05:37.152Z,80.07
2023-04-19T17:08:05.015Z,80.39
2023-04-19T17:10:34.077Z,81.00
2023-04-19T17:13:01.872Z,80.82
2023-04-19T17:15:29.602Z,80.24
2023-04-19T17:17:57.250Z,80.34
2023-04-19T17:20:24.952Z,80.39
2023-04-19T17:22:52.692Z,80.17
2023-04-19T17:25:22.235Z,80.17
2023-04-19T17:27:51.544Z,80.23
2023-04-19T17:30:19.187Z,81.31
2023-04-19T17:32:46.858Z,81.36
2023-04-19T17:35:15.483Z,80.94
2023-04-19T17:37:43.605Z,81.37
2023-04-19T17:40:12.001Z,80.78
2023-04-19T17:42:39.710Z,80.29
2023-04-19T17:45:11.129Z,80.33
2023-04-19T17:47:39.491Z,79.89
2023-04-19T17:50:08.907Z,79.47
2023-04-19T17:52:36.863Z,79.67
2023-04-19T17:55:06.429Z,79.69
2023-04-19T17:57:34.706Z,80.12
2023-04-19T18:00:06.111Z,80.26
2023-04-19T18:02:39.059Z,80.15
2023-04-19T18:05:07.374Z,80.35
2023-04-19T18:07:36.442Z,80.50
2023-04-19T18:10:04.641Z,80.90
2023-04-19T18:12:32.352Z,81.43
2023-04-19T18:14:59.982Z,81.49
2023-04-19T18:17:27.622Z,81.54
2023-04-19T18:19:56.570Z,81.33
2023-04-19T18:22:24.238Z,81.74
2023-04-19T18:24:53.379Z,81.57
2023-04-19T18:27:21.038Z,81.63
2023-04-19T18:29:51.876Z,81.87
2023-04-19T18:32:21.853Z,81.76
2023-04-19T18:34:49.579Z,81.86
2023-04-19T18:37:18.676Z,82.00
2023-04-19T18:39:46.456Z,82.55
2023-04-19T18:42:14.538Z,82.09
2023-04-19T18:47:13.137Z,82.19
2023-04-19T18:49:40.801Z,82.17
2023-04-19T18:52:08.571Z,82.24
2023-04-19T18:54:38.589Z,82.21
2023-04-19T18:57:22.690Z,82.95
2023-04-19T18:59:52.512Z,82.45
2023-04-19T19:02:20.183Z,82.27
2023-04-19T19:04:55.978Z,82.31
2023-04-19T19:07:35.833Z,82.50
2023-04-19T19:10:19.195Z,82.47
2023-04-19T19:12:49.791Z,82.48
2023-04-19T19:15:17.865Z,82.64
2023-04-19T19:17:49.266Z,82.67
2023-04-19T19:20:17.843Z,82.67
2023-04-19T19:22:45.803Z,82.73
2023-04-19T19:25:14.783Z,82.49
2023-04-19T19:27:58.419Z,82.82
2023-04-19T19:30:33.582Z,82.78
2023-04-19T19:33:02.358Z,82.11
2023-04-19T19:35:30.039Z,81.86
2023-04-19T19:37:57.656Z,81.50
2023-04-19T19:40:30.910Z,81.95
2023-04-19T19:42:59.916Z,81.72
2023-04-19T19:45:28.254Z,82.21
2023-04-19T19:47:59.060Z,81.81
2023-04-19T19:51:06.763Z,81.99
2023-04-19T19:53:16.841Z,82.27
2023-04-19T19:55:45.801Z,82.14
2023-04-19T19:58:39.200Z,82.12
2023-04-19T20:01:02.277Z,82.64
2023-04-19T20:03:37.592Z,82.90
2023-04-19T20:06:35.811Z,83.48
2023-04-19T20:08:57.339Z,83.76
2023-04-19T20:11:26.548Z,84.04
2023-04-19T20:13:54.333Z,84.11
2023-04-19T20:16:23.252Z,83.77
2023-04-19T20:18:52.535Z,84.30
2023-04-19T20:21:20.493Z,84.29
2023-04-19T20:23:48.254Z,84.45
2023-04-19T20:26:15.919Z,84.17
2023-04-19T20:28:44.867Z,84.44
2023-04-19T20:31:12.494Z,84.17
2023-04-19T20:33:40.624Z,84.18
2023-04-19T20:36:09.415Z,84.10
2023-04-19T20:38:37.122Z,83.90
2023-04-19T20:41:04.739Z,84.16
2023-04-19T20:43:33.026Z,83.35
2023-04-19T20:46:02.103Z,83.66
2023-04-19T20:48:29.745Z,83.28
2023-04-19T20:50:57.325Z,83.42
2023-04-19T20:53:25.047Z,82.89
2023-04-19T20:55:52.683Z,82.73
2023-04-19T20:58:20.743Z,83.30
2023-04-19T21:00:48.503Z,83.51
2023-04-19T21:03:17.829Z,83.59
2023-04-19T21:05:45.841Z,83.50
2023-04-19T21:08:15.099Z,83.44
2023-04-19T21:10:42.739Z,83.25
2023-04-19T21:13:10.648Z,83.06
2023-04-19T21:15:38.278Z,83.05
2023-04-19T21:18:06.191Z,83.09
2023-04-19T21:20:35.195Z,83.56
2023-04-19T21:23:03.358Z,83.72
2023-04-19T21:25:31.215Z,83.91
2023-04-19T21:27:58.846Z,83.61
2023-04-19T21:30:26.783Z,83.44
2023-04-19T21:32:54.448Z,83.89
2023-04-19T21:35:22.228Z,83.67
2023-04-19T21:37:51.374Z,83.85
2023-04-19T21:40:19.215Z,84.32
2023-04-19T21:42:46.807Z,84.25
2023-04-19T21:45:14.699Z,84.40
2023-04-19T21:47:42.401Z,84.86
2023-04-19T21:50:10.955Z,84.75
2023-04-19T21:52:38.832Z,84.74
2023-04-19T21:55:09.334Z,84.57
2023-04-19T21:57:38.284Z,84.74
2023-04-19T22:00:09.107Z,84.96
2023-04-19T22:02:37.152Z,84.94
2023-04-19T22:05:07.269Z,85.60
2023-04-19T22:07:37.384Z,85.21
2023-04-19T22:10:06.055Z,85.57
2023-04-19T22:12:36.267Z,85.52
2023-04-19T22:15:09.473Z,85.41
2023-04-19T22:17:38.464Z,85.61
2023-04-19T22:20:09.162Z,85.47
2023-04-19T22:22:36.863Z,85.35
2023-04-19T22:25:04.800Z,85.62
2023-04-19T22:27:32.399Z,85.98
2023-04-19T22:30:01.464Z,85.51
2023-04-19T22:32:29.110Z,85.88
2023-04-19T22:34:56.802Z,85.98
2023-04-19T22:37:24.377Z,85.65
2023-04-19T22:39:52.342Z,86.05
2023-04-19T22:42:19.912Z,86.61
2023-04-19T22:44:47.483Z,86.85
2023-04-19T22:47:16.449Z,87.09
2023-04-19T22:49:45.173Z,86.24
2023-04-19T22:52:14.328Z,86.51
2023-04-19T22:54:42.727Z,86.31
2023-04-19T22:57:11.112Z,86.41
2023-04-19T22:59:39.169Z,86.45
2023-04-19T23:02:06.813Z,86.69
2023-04-19T23:04:36.199Z,86.64
2023-04-19T23:07:04.032Z,86.41
2023-04-19T23:09:31.640Z,86.67
2023-04-19T23:12:00.466Z,86.56
2023-04-19T23:14:28.353Z,86.59
2023-04-19T23:16:57.189Z,86.38
2023-04-19T23:19:25.351Z,86.08
2023-04-19T23:21:54.430Z,86.65
2023-04-19T23:24:21.987Z,86.46
2023-04-19T23:26:49.625Z,86.35
2023-04-19T23:29:17.336Z,86.54
2023-04-19T23:31:45.093Z,86.75
2023-04-19T23:34:13.905Z,86.51
2023-04-19T23:36:41.533Z,86.29
2023-04-19T23:39:10.703Z,86.30
2023-04-19T23:41:38.414Z,85.95
2023-04-19T23:44:06.284Z,86.30
2023-04-19T23:46:33.970Z,86.16
2023-04-19T23:49:01.628Z,86.07
2023-04-19T23:51:29.310Z,86.24
2023-04-19T23:53:56.889Z,86.22
2023-04-19T23:56:26.193Z,86.10
2023-04-19T23:58:53.785Z,86.30
